sensor_id;sensor_type;location;lat;lon;timestamp;P1;durP1;ratioP1;P2;durP2;ratioP2
6513;SDS011;3290;47.716;9.070;2023-07-02T00:02:05;3.77;;;3.13;;
6513;SDS011;3290;47.716;9.070;2023-07-02T00:04:31;6.43;;;3.03;;
6513;SDS011;3290;47.716;9.070;2023-07-02T00:06:56;3.47;;;2.70;;
6513;SDS011;3290;47.716;9.070;2023-07-02T00:09:22;4.93;;;2.80;;
6513;SDS011;3290;47.716;9.070;2023-07-02T00:11:47;3.17;;;2.27;;
6513;SDS011;3290;47.716;9.070;2023-07-02T00:14:13;3.10;;;2.40;;
6513;SDS011;3290;47.716;9.070;2023-07-02T00:16:42;4.60;;;2.77;;
6513;SDS011;3290;47.716;9.070;2023-07-02T00:19:10;3.13;;;2.63;;
6513;SDS011;3290;47.716;9.070;2023-07-02T00:21:37;2.93;;;2.60;;
6513;SDS011;3290;47.716;9.070;2023-07-02T00:24:03;3.70;;;2.70;;
6513;SDS011;3290;47.716;9.070;2023-07-02T00:26:29;2.83;;;2.10;;
6513;SDS011;3290;47.716;9.070;2023-07-02T00:28:54;2.37;;;2.10;;
6513;SDS011;3290;47.716;9.070;2023-07-02T00:31:21;4.70;;;1.90;;
6513;SDS011;3290;47.716;9.070;2023-07-02T00:33:47;1.90;;;1.80;;
6513;SDS011;3290;47.716;9.070;2023-07-02T00:36:14;1.67;;;1.57;;
6513;SDS011;3290;47.716;9.070;2023-07-02T00:38:44;2.10;;;1.57;;
6513;SDS011;3290;47.716;9.070;2023-07-02T00:41:11;2.77;;;2.40;;
6513;SDS011;3290;47.716;9.070;2023-07-02T00:43:37;2.17;;;2.00;;
6513;SDS011;3290;47.716;9.070;2023-07-02T00:46:15;3.83;;;1.77;;
6513;SDS011;3290;47.716;9.070;2023-07-02T00:48:50;1.77;;;1.60;;
6513;SDS011;3290;47.716;9.070;2023-07-02T00:51:21;2.07;;;1.80;;
6513;SDS011;3290;47.716;9.070;2023-07-02T00:53:51;2.80;;;2.07;;
6513;SDS011;3290;47.716;9.070;2023-07-02T00:56:19;2.07;;;1.87;;
6513;SDS011;3290;47.716;9.070;2023-07-02T00:58:45;6.83;;;1.97;;
6513;SDS011;3290;47.716;9.070;2023-07-02T01:01:16;1.93;;;1.77;;
6513;SDS011;3290;47.716;9.070;2023-07-02T01:03:59;1.80;;;1.70;;
6513;SDS011;3290;47.716;9.070;2023-07-02T01:06:27;2.20;;;1.50;;
6513;SDS011;3290;47.716;9.070;2023-07-02T01:08:55;2.13;;;1.80;;
6513;SDS011;3290;47.716;9.070;2023-07-02T01:11:22;1.80;;;1.70;;
6513;SDS011;3290;47.716;9.070;2023-07-02T01:13:52;1.77;;;1.67;;
6513;SDS011;3290;47.716;9.070;2023-07-02T01:16:20;1.87;;;1.67;;
6513;SDS011;3290;47.716;9.070;2023-07-02T01:18:46;2.33;;;1.53;;
6513;SDS011;3290;47.716;9.070;2023-07-02T01:21:13;1.97;;;1.87;;
6513;SDS011;3290;47.716;9.070;2023-07-02T01:23:38;1.80;;;1.70;;
6513;SDS011;3290;47.716;9.070;2023-07-02T01:26:03;1.83;;;1.73;;
6513;SDS011;3290;47.716;9.070;2023-07-02T01:28:34;1.40;;;1.30;;
6513;SDS011;3290;47.716;9.070;2023-07-02T01:31:02;2.97;;;2.20;;
6513;SDS011;3290;47.716;9.070;2023-07-02T01:33:28;2.30;;;1.80;;
6513;SDS011;3290;47.716;9.070;2023-07-02T01:35:53;2.57;;;2.37;;
6513;SDS011;3290;47.716;9.070;2023-07-02T01:38:19;3.73;;;2.10;;
6513;SDS011;3290;47.716;9.070;2023-07-02T01:40:44;2.20;;;2.00;;
6513;SDS011;3290;47.716;9.070;2023-07-02T01:43:09;2.50;;;2.30;;
6513;SDS011;3290;47.716;9.070;2023-07-02T01:45:36;3.27;;;2.50;;
6513;SDS011;3290;47.716;9.070;2023-07-02T01:48:02;2.97;;;2.67;;
6513;SDS011;3290;47.716;9.070;2023-07-02T01:50:28;1.93;;;1.73;;
6513;SDS011;3290;47.716;9.070;2023-07-02T01:52:53;6.60;;;2.40;;
6513;SDS011;3290;47.716;9.070;2023-07-02T01:55:18;3.50;;;2.57;;
6513;SDS011;3290;47.716;9.070;2023-07-02T01:57:44;3.87;;;2.73;;
6513;SDS011;3290;47.716;9.070;2023-07-02T02:00:09;3.00;;;2.60;;
6513;SDS011;3290;47.716;9.070;2023-07-02T02:02:35;4.53;;;3.10;;
6513;SDS011;3290;47.716;9.070;2023-07-02T02:05:01;4.17;;;2.70;;
6513;SDS011;3290;47.716;9.070;2023-07-02T02:07:27;3.27;;;2.97;;
6513;SDS011;3290;47.716;9.070;2023-07-02T02:09:52;3.20;;;2.70;;
6513;SDS011;3290;47.716;9.070;2023-07-02T02:12:18;3.33;;;2.70;;
6513;SDS011;3290;47.716;9.070;2023-07-02T02:14:43;4.27;;;2.60;;
6513;SDS011;3290;47.716;9.070;2023-07-02T02:17:08;2.70;;;2.20;;
6513;SDS011;3290;47.716;9.070;2023-07-02T02:19:34;3.23;;;2.33;;
6513;SDS011;3290;47.716;9.070;2023-07-02T02:21:59;3.90;;;2.40;;
6513;SDS011;3290;47.716;9.070;2023-07-02T02:24:24;2.37;;;2.10;;
6513;SDS011;3290;47.716;9.070;2023-07-02T02:26:50;3.83;;;2.53;;
6513;SDS011;3290;47.716;9.070;2023-07-02T02:29:15;3.10;;;2.80;;
6513;SDS011;3290;47.716;9.070;2023-07-02T02:31:40;10.53;;;3.10;;
6513;SDS011;3290;47.716;9.070;2023-07-02T02:34:07;4.13;;;3.20;;
6513;SDS011;3290;47.716;9.070;2023-07-02T02:36:32;3.30;;;3.00;;
6513;SDS011;3290;47.716;9.070;2023-07-02T02:38:58;4.53;;;2.73;;
6513;SDS011;3290;47.716;9.070;2023-07-02T02:41:23;2.77;;;2.57;;
6513;SDS011;3290;47.716;9.070;2023-07-02T02:43:48;3.20;;;2.83;;
6513;SDS011;3290;47.716;9.070;2023-07-02T02:46:19;3.33;;;2.80;;
6513;SDS011;3290;47.716;9.070;2023-07-02T02:48:48;5.70;;;3.40;;
6513;SDS011;3290;47.716;9.070;2023-07-02T02:51:14;3.77;;;3.30;;
6513;SDS011;3290;47.716;9.070;2023-07-02T02:53:39;2.63;;;2.40;;
6513;SDS011;3290;47.716;9.070;2023-07-02T02:56:04;4.00;;;3.50;;
6513;SDS011;3290;47.716;9.070;2023-07-02T02:58:30;3.73;;;2.73;;
6513;SDS011;3290;47.716;9.070;2023-07-02T03:00:55;4.10;;;2.90;;
6513;SDS011;3290;47.716;9.070;2023-07-02T03:03:21;4.10;;;3.50;;
6513;SDS011;3290;47.716;9.070;2023-07-02T03:05:49;3.40;;;2.93;;
6513;SDS011;3290;47.716;9.070;2023-07-02T03:08:15;4.73;;;3.80;;
6513;SDS011;3290;47.716;9.070;2023-07-02T03:10:40;8.07;;;4.27;;
6513;SDS011;3290;47.716;9.070;2023-07-02T03:13:07;5.23;;;4.27;;
6513;SDS011;3290;47.716;9.070;2023-07-02T03:15:32;4.33;;;3.60;;
6513;SDS011;3290;47.716;9.070;2023-07-02T03:17:57;4.80;;;4.30;;
6513;SDS011;3290;47.716;9.070;2023-07-02T03:20:23;5.90;;;4.00;;
6513;SDS011;3290;47.716;9.070;2023-07-02T03:22:48;4.63;;;3.90;;
6513;SDS011;3290;47.716;9.070;2023-07-02T03:25:14;4.40;;;4.00;;
6513;SDS011;3290;47.716;9.070;2023-07-02T03:27:40;5.90;;;4.07;;
6513;SDS011;3290;47.716;9.070;2023-07-02T03:30:05;4.30;;;3.50;;
6513;SDS011;3290;47.716;9.070;2023-07-02T03:32:31;6.07;;;4.57;;
6513;SDS011;3290;47.716;9.070;2023-07-02T03:34:57;5.40;;;4.20;;
6513;SDS011;3290;47.716;9.070;2023-07-02T03:37:22;4.30;;;3.63;;
6513;SDS011;3290;47.716;9.070;2023-07-02T03:39:47;5.47;;;4.20;;
6513;SDS011;3290;47.716;9.070;2023-07-02T03:42:13;4.67;;;3.63;;
6513;SDS011;3290;47.716;9.070;2023-07-02T03:44:38;5.70;;;4.10;;
6513;SDS011;3290;47.716;9.070;2023-07-02T03:47:03;5.40;;;4.07;;
6513;SDS011;3290;47.716;9.070;2023-07-02T03:49:29;5.63;;;4.03;;
6513;SDS011;3290;47.716;9.070;2023-07-02T03:51:54;7.63;;;3.97;;
6513;SDS011;3290;47.716;9.070;2023-07-02T03:54:20;6.73;;;3.90;;
6513;SDS011;3290;47.716;9.070;2023-07-02T03:56:45;4.03;;;3.47;;
6513;SDS011;3290;47.716;9.070;2023-07-02T03:59:10;6.03;;;4.43;;
6513;SDS011;3290;47.716;9.070;2023-07-02T04:01:36;9.33;;;4.60;;
6513;SDS011;3290;47.716;9.070;2023-07-02T04:04:01;6.70;;;4.17;;
6513;SDS011;3290;47.716;9.070;2023-07-02T04:06:26;7.47;;;3.87;;
6513;SDS011;3290;47.716;9.070;2023-07-02T04:08:52;5.90;;;4.00;;
6513;SDS011;3290;47.716;9.070;2023-07-02T04:11:17;6.90;;;4.10;;
6513;SDS011;3290;47.716;9.070;2023-07-02T04:13:43;6.70;;;3.87;;
6513;SDS011;3290;47.716;9.070;2023-07-02T04:16:08;13.63;;;4.10;;
6513;SDS011;3290;47.716;9.070;2023-07-02T04:18:33;5.93;;;4.23;;
6513;SDS011;3290;47.716;9.070;2023-07-02T04:20:59;6.83;;;3.97;;
6513;SDS011;3290;47.716;9.070;2023-07-02T04:23:25;6.37;;;4.63;;
6513;SDS011;3290;47.716;9.070;2023-07-02T04:25:51;7.20;;;4.40;;
6513;SDS011;3290;47.716;9.070;2023-07-02T04:28:16;4.33;;;3.27;;
6513;SDS011;3290;47.716;9.070;2023-07-02T04:30:42;5.10;;;3.70;;
6513;SDS011;3290;47.716;9.070;2023-07-02T04:33:07;4.83;;;3.83;;
6513;SDS011;3290;47.716;9.070;2023-07-02T04:35:33;6.70;;;3.97;;
6513;SDS011;3290;47.716;9.070;2023-07-02T04:37:59;6.33;;;4.57;;
6513;SDS011;3290;47.716;9.070;2023-07-02T04:40:25;7.83;;;4.67;;
6513;SDS011;3290;47.716;9.070;2023-07-02T04:42:51;6.63;;;4.50;;
6513;SDS011;3290;47.716;9.070;2023-07-02T04:45:23;5.90;;;4.30;;
6513;SDS011;3290;47.716;9.070;2023-07-02T04:47:49;7.67;;;5.30;;
6513;SDS011;3290;47.716;9.070;2023-07-02T04:50:15;9.60;;;4.83;;
6513;SDS011;3290;47.716;9.070;2023-07-02T04:52:44;7.60;;;4.60;;
6513;SDS011;3290;47.716;9.070;2023-07-02T04:55:10;8.43;;;4.90;;
6513;SDS011;3290;47.716;9.070;2023-07-02T04:57:36;9.67;;;5.30;;
6513;SDS011;3290;47.716;9.070;2023-07-02T05:00:02;10.20;;;4.70;;
6513;SDS011;3290;47.716;9.070;2023-07-02T05:02:29;10.53;;;5.40;;
6513;SDS011;3290;47.716;9.070;2023-07-02T05:04:54;7.00;;;4.53;;
6513;SDS011;3290;47.716;9.070;2023-07-02T05:07:19;10.77;;;5.57;;
6513;SDS011;3290;47.716;9.070;2023-07-02T05:09:45;11.40;;;6.23;;
6513;SDS011;3290;47.716;9.070;2023-07-02T05:12:10;7.73;;;5.40;;
6513;SDS011;3290;47.716;9.070;2023-07-02T05:14:35;10.33;;;5.60;;
6513;SDS011;3290;47.716;9.070;2023-07-02T05:17:01;9.23;;;5.10;;
6513;SDS011;3290;47.716;9.070;2023-07-02T05:19:26;15.70;;;7.00;;
6513;SDS011;3290;47.716;9.070;2023-07-02T05:21:52;18.13;;;6.87;;
6513;SDS011;3290;47.716;9.070;2023-07-02T05:24:17;8.90;;;5.87;;
6513;SDS011;3290;47.716;9.070;2023-07-02T05:26:42;14.10;;;6.50;;
6513;SDS011;3290;47.716;9.070;2023-07-02T05:29:08;18.10;;;7.20;;
6513;SDS011;3290;47.716;9.070;2023-07-02T05:31:33;12.47;;;7.87;;
6513;SDS011;3290;47.716;9.070;2023-07-02T05:34:01;13.97;;;7.30;;
6513;SDS011;3290;47.716;9.070;2023-07-02T05:36:27;17.13;;;6.97;;
6513;SDS011;3290;47.716;9.070;2023-07-02T05:38:52;17.53;;;9.00;;
6513;SDS011;3290;47.716;9.070;2023-07-02T05:41:18;15.03;;;6.10;;
6513;SDS011;3290;47.716;9.070;2023-07-02T05:43:44;16.20;;;7.87;;
6513;SDS011;3290;47.716;9.070;2023-07-02T05:46:09;19.80;;;8.63;;
6513;SDS011;3290;47.716;9.070;2023-07-02T05:48:34;15.93;;;7.53;;
6513;SDS011;3290;47.716;9.070;2023-07-02T05:51:00;22.60;;;9.80;;
6513;SDS011;3290;47.716;9.070;2023-07-02T05:53:25;15.87;;;8.13;;
6513;SDS011;3290;47.716;9.070;2023-07-02T05:55:50;14.53;;;8.40;;
6513;SDS011;3290;47.716;9.070;2023-07-02T05:58:16;14.93;;;9.50;;
6513;SDS011;3290;47.716;9.070;2023-07-02T06:00:41;20.00;;;10.23;;
6513;SDS011;3290;47.716;9.070;2023-07-02T06:03:10;11.10;;;6.30;;
6513;SDS011;3290;47.716;9.070;2023-07-02T06:05:35;18.67;;;9.07;;
6513;SDS011;3290;47.716;9.070;2023-07-02T06:08:00;16.17;;;9.53;;
6513;SDS011;3290;47.716;9.070;2023-07-02T06:10:26;15.57;;;9.10;;
6513;SDS011;3290;47.716;9.070;2023-07-02T06:12:51;19.47;;;9.03;;
6513;SDS011;3290;47.716;9.070;2023-07-02T06:15:17;17.93;;;9.57;;
6513;SDS011;3290;47.716;9.070;2023-07-02T06:17:42;24.27;;;9.50;;
6513;SDS011;3290;47.716;9.070;2023-07-02T06:20:08;15.60;;;8.00;;
6513;SDS011;3290;47.716;9.070;2023-07-02T06:22:33;19.00;;;9.90;;
6513;SDS011;3290;47.716;9.070;2023-07-02T06:24:59;28.27;;;11.40;;
6513;SDS011;3290;47.716;9.070;2023-07-02T06:27:24;20.30;;;8.77;;
6513;SDS011;3290;47.716;9.070;2023-07-02T06:29:49;16.80;;;9.17;;
6513;SDS011;3290;47.716;9.070;2023-07-02T06:32:16;18.27;;;9.50;;
6513;SDS011;3290;47.716;9.070;2023-07-02T06:34:42;19.23;;;9.03;;
6513;SDS011;3290;47.716;9.070;2023-07-02T06:37:07;13.07;;;8.07;;
6513;SDS011;3290;47.716;9.070;2023-07-02T06:39:33;25.87;;;10.27;;
6513;SDS011;3290;47.716;9.070;2023-07-02T06:41:58;20.70;;;10.00;;
6513;SDS011;3290;47.716;9.070;2023-07-02T06:44:23;17.80;;;9.00;;
6513;SDS011;3290;47.716;9.070;2023-07-02T06:46:49;23.07;;;10.80;;
6513;SDS011;3290;47.716;9.070;2023-07-02T06:49:14;18.70;;;8.93;;
6513;SDS011;3290;47.716;9.070;2023-07-02T06:51:39;17.33;;;9.50;;
6513;SDS011;3290;47.716;9.070;2023-07-02T06:54:06;24.83;;;13.40;;
6513;SDS011;3290;47.716;9.070;2023-07-02T06:56:31;24.00;;;9.70;;
6513;SDS011;3290;47.716;9.070;2023-07-02T06:58:58;16.90;;;9.37;;
6513;SDS011;3290;47.716;9.070;2023-07-02T07:01:23;17.10;;;10.43;;
6513;SDS011;3290;47.716;9.070;2023-07-02T07:03:49;19.63;;;10.70;;
6513;SDS011;3290;47.716;9.070;2023-07-02T07:06:14;19.83;;;9.37;;
6513;SDS011;3290;47.716;9.070;2023-07-02T07:08:40;16.97;;;9.63;;
6513;SDS011;3290;47.716;9.070;2023-07-02T07:11:05;19.50;;;10.13;;
6513;SDS011;3290;47.716;9.070;2023-07-02T07:13:31;27.47;;;10.70;;
6513;SDS011;3290;47.716;9.070;2023-07-02T07:15:56;18.23;;;10.10;;
6513;SDS011;3290;47.716;9.070;2023-07-02T07:18:21;21.60;;;9.30;;
6513;SDS011;3290;47.716;9.070;2023-07-02T07:20:47;23.87;;;10.93;;
6513;SDS011;3290;47.716;9.070;2023-07-02T07:23:14;19.80;;;10.37;;
6513;SDS011;3290;47.716;9.070;2023-07-02T07:25:40;21.50;;;10.33;;
6513;SDS011;3290;47.716;9.070;2023-07-02T07:28:05;21.73;;;9.60;;
6513;SDS011;3290;47.716;9.070;2023-07-02T07:30:31;23.50;;;11.87;;
6513;SDS011;3290;47.716;9.070;2023-07-02T07:32:56;25.53;;;12.43;;
6513;SDS011;3290;47.716;9.070;2023-07-02T07:35:21;22.30;;;11.07;;
6513;SDS011;3290;47.716;9.070;2023-07-02T07:37:47;26.83;;;13.27;;
6513;SDS011;3290;47.716;9.070;2023-07-02T07:40:13;22.00;;;10.83;;
6513;SDS011;3290;47.716;9.070;2023-07-02T07:42:39;31.60;;;14.10;;
6513;SDS011;3290;47.716;9.070;2023-07-02T07:45:05;23.60;;;12.63;;
6513;SDS011;3290;47.716;9.070;2023-07-02T07:47:31;25.73;;;14.97;;
6513;SDS011;3290;47.716;9.070;2023-07-02T07:49:56;26.47;;;13.50;;
6513;SDS011;3290;47.716;9.070;2023-07-02T07:52:22;28.23;;;12.23;;
6513;SDS011;3290;47.716;9.070;2023-07-02T07:54:47;22.90;;;12.10;;
6513;SDS011;3290;47.716;9.070;2023-07-02T07:57:13;23.00;;;10.63;;
6513;SDS011;3290;47.716;9.070;2023-07-02T07:59:39;37.13;;;13.97;;
6513;SDS011;3290;47.716;9.070;2023-07-02T08:02:04;30.27;;;15.67;;
6513;SDS011;3290;47.716;9.070;2023-07-02T08:04:30;32.27;;;14.27;;
6513;SDS011;3290;47.716;9.070;2023-07-02T08:06:56;37.40;;;15.50;;
6513;SDS011;3290;47.716;9.070;2023-07-02T08:09:22;33.83;;;16.07;;
6513;SDS011;3290;47.716;9.070;2023-07-02T08:11:49;38.13;;;16.17;;
6513;SDS011;3290;47.716;9.070;2023-07-02T08:14:14;28.83;;;14.93;;
6513;SDS011;3290;47.716;9.070;2023-07-02T08:16:39;38.27;;;15.63;;
6513;SDS011;3290;47.716;9.070;2023-07-02T08:19:05;30.67;;;16.00;;
6513;SDS011;3290;47.716;9.070;2023-07-02T08:21:31;33.23;;;16.60;;
6513;SDS011;3290;47.716;9.070;2023-07-02T08:23:56;32.97;;;17.40;;
6513;SDS011;3290;47.716;9.070;2023-07-02T08:26:22;30.77;;;15.50;;
6513;SDS011;3290;47.716;9.070;2023-07-02T08:28:48;33.90;;;15.20;;
6513;SDS011;3290;47.716;9.070;2023-07-02T08:31:13;32.67;;;13.77;;
6513;SDS011;3290;47.716;9.070;2023-07-02T08:33:38;33.23;;;16.17;;
6513;SDS011;3290;47.716;9.070;2023-07-02T08:36:04;34.10;;;15.80;;
6513;SDS011;3290;47.716;9.070;2023-07-02T08:38:29;31.83;;;16.47;;
6513;SDS011;3290;47.716;9.070;2023-07-02T08:40:55;33.40;;;16.40;;
6513;SDS011;3290;47.716;9.070;2023-07-02T08:43:20;36.73;;;17.23;;
6513;SDS011;3290;47.716;9.070;2023-07-02T08:45:46;36.83;;;14.90;;
6513;SDS011;3290;47.716;9.070;2023-07-02T08:48:12;35.77;;;15.80;;
6513;SDS011;3290;47.716;9.070;2023-07-02T08:50:38;32.07;;;16.13;;
6513;SDS011;3290;47.716;9.070;2023-07-02T08:53:03;31.30;;;16.90;;
6513;SDS011;3290;47.716;9.070;2023-07-02T08:55:29;27.63;;;16.30;;
6513;SDS011;3290;47.716;9.070;2023-07-02T08:57:55;29.97;;;14.23;;
6513;SDS011;3290;47.716;9.070;2023-07-02T09:00:25;32.67;;;17.00;;
6513;SDS011;3290;47.716;9.070;2023-07-02T09:02:51;35.40;;;18.40;;
6513;SDS011;3290;47.716;9.070;2023-07-02T09:05:17;30.87;;;16.93;;
6513;SDS011;3290;47.716;9.070;2023-07-02T09:07:43;38.07;;;17.60;;
6513;SDS011;3290;47.716;9.070;2023-07-02T09:10:24;33.97;;;19.77;;
6513;SDS011;3290;47.716;9.070;2023-07-02T09:13:01;36.47;;;15.30;;
6513;SDS011;3290;47.716;9.070;2023-07-02T09:15:37;28.90;;;16.07;;
6513;SDS011;3290;47.716;9.070;2023-07-02T09:18:14;40.67;;;18.00;;
6513;SDS011;3290;47.716;9.070;2023-07-02T09:20:51;33.20;;;15.63;;
6513;SDS011;3290;47.716;9.070;2023-07-02T09:23:18;27.80;;;16.97;;
6513;SDS011;3290;47.716;9.070;2023-07-02T09:25:44;34.87;;;17.53;;
6513;SDS011;3290;47.716;9.070;2023-07-02T09:28:21;37.10;;;17.20;;
6513;SDS011;3290;47.716;9.070;2023-07-02T09:30:52;31.83;;;18.40;;
6513;SDS011;3290;47.716;9.070;2023-07-02T09:33:19;32.40;;;16.63;;
6513;SDS011;3290;47.716;9.070;2023-07-02T09:35:45;33.10;;;16.93;;
6513;SDS011;3290;47.716;9.070;2023-07-02T09:38:11;35.83;;;18.50;;
6513;SDS011;3290;47.716;9.070;2023-07-02T09:40:39;33.40;;;17.40;;
6513;SDS011;3290;47.716;9.070;2023-07-02T09:43:11;31.53;;;15.37;;
6513;SDS011;3290;47.716;9.070;2023-07-02T09:45:36;30.60;;;16.47;;
6513;SDS011;3290;47.716;9.070;2023-07-02T09:48:03;29.77;;;16.20;;
6513;SDS011;3290;47.716;9.070;2023-07-02T09:50:31;28.13;;;14.83;;
6513;SDS011;3290;47.716;9.070;2023-07-02T09:52:57;26.03;;;10.77;;
6513;SDS011;3290;47.716;9.070;2023-07-02T09:55:22;31.77;;;14.83;;
6513;SDS011;3290;47.716;9.070;2023-07-02T09:57:48;29.33;;;14.90;;
6513;SDS011;3290;47.716;9.070;2023-07-02T10:00:14;32.50;;;16.07;;
6513;SDS011;3290;47.716;9.070;2023-07-02T10:02:40;29.30;;;15.07;;
6513;SDS011;3290;47.716;9.070;2023-07-02T10:05:06;28.37;;;15.03;;
6513;SDS011;3290;47.716;9.070;2023-07-02T10:07:31;24.20;;;12.63;;
6513;SDS011;3290;47.716;9.070;2023-07-02T10:10:00;19.23;;;10.70;;
6513;SDS011;3290;47.716;9.070;2023-07-02T10:12:26;20.20;;;10.80;;
6513;SDS011;3290;47.716;9.070;2023-07-02T10:14:59;18.07;;;10.20;;
6513;SDS011;3290;47.716;9.070;2023-07-02T10:17:28;15.20;;;9.70;;
6513;SDS011;3290;47.716;9.070;2023-07-02T10:19:56;20.30;;;10.03;;
6513;SDS011;3290;47.716;9.070;2023-07-02T10:22:24;20.40;;;11.00;;
6513;SDS011;3290;47.716;9.070;2023-07-02T10:27:37;15.37;;;9.50;;
6513;SDS011;3290;47.716;9.070;2023-07-02T10:30:04;21.10;;;11.47;;
6513;SDS011;3290;47.716;9.070;2023-07-02T10:32:31;22.73;;;11.03;;
6513;SDS011;3290;47.716;9.070;2023-07-02T10:35:02;17.67;;;9.20;;
6513;SDS011;3290;47.716;9.070;2023-07-02T10:37:37;20.67;;;11.53;;
6513;SDS011;3290;47.716;9.070;2023-07-02T10:40:04;26.40;;;13.30;;
6513;SDS011;3290;47.716;9.070;2023-07-02T10:42:31;20.50;;;10.73;;
6513;SDS011;3290;47.716;9.070;2023-07-02T10:44:57;25.83;;;11.60;;
6513;SDS011;3290;47.716;9.070;2023-07-02T10:47:23;16.77;;;10.37;;
6513;SDS011;3290;47.716;9.070;2023-07-02T10:49:48;14.67;;;10.27;;
6513;SDS011;3290;47.716;9.070;2023-07-02T10:52:14;23.67;;;11.83;;
6513;SDS011;3290;47.716;9.070;2023-07-02T10:57:05;31.37;;;13.50;;
6513;SDS011;3290;47.716;9.070;2023-07-02T10:59:31;26.50;;;13.37;;
6513;SDS011;3290;47.716;9.070;2023-07-02T11:01:56;32.80;;;14.27;;
6513;SDS011;3290;47.716;9.070;2023-07-02T11:04:26;24.00;;;11.97;;
6513;SDS011;3290;47.716;9.070;2023-07-02T11:06:52;27.50;;;11.70;;
6513;SDS011;3290;47.716;9.070;2023-07-02T11:09:18;22.43;;;12.00;;
6513;SDS011;3290;47.716;9.070;2023-07-02T11:11:55;26.73;;;13.27;;
6513;SDS011;3290;47.716;9.070;2023-07-02T11:14:29;17.80;;;10.37;;
6513;SDS011;3290;47.716;9.070;2023-07-02T11:16:55;20.20;;;11.43;;
6513;SDS011;3290;47.716;9.070;2023-07-02T11:19:22;24.30;;;13.37;;
6513;SDS011;3290;47.716;9.070;2023-07-02T11:21:54;22.47;;;11.90;;
6513;SDS011;3290;47.716;9.070;2023-07-02T11:26:54;20.20;;;11.97;;
6513;SDS011;3290;47.716;9.070;2023-07-02T11:29:19;21.10;;;11.83;;
6513;SDS011;3290;47.716;9.070;2023-07-02T11:31:45;22.00;;;11.70;;
6513;SDS011;3290;47.716;9.070;2023-07-02T11:34:11;22.93;;;11.00;;
6513;SDS011;3290;47.716;9.070;2023-07-02T11:36:37;18.73;;;9.80;;
6513;SDS011;3290;47.716;9.070;2023-07-02T11:39:02;15.87;;;9.93;;
6513;SDS011;3290;47.716;9.070;2023-07-02T11:41:36;15.77;;;10.90;;
6513;SDS011;3290;47.716;9.070;2023-07-02T11:44:08;18.77;;;10.60;;
6513;SDS011;3290;47.716;9.070;2023-07-02T11:46:34;13.73;;;7.43;;
6513;SDS011;3290;47.716;9.070;2023-07-02T11:49:02;17.20;;;10.03;;
6513;SDS011;3290;47.716;9.070;2023-07-02T11:51:33;18.57;;;10.20;;
6513;SDS011;3290;47.716;9.070;2023-07-02T11:54:00;14.03;;;9.03;;
6513;SDS011;3290;47.716;9.070;2023-07-02T11:56:25;16.57;;;8.10;;
6513;SDS011;3290;47.716;9.070;2023-07-02T11:58:51;12.97;;;8.20;;
6513;SDS011;3290;47.716;9.070;2023-07-02T12:01:16;16.47;;;9.93;;
6513;SDS011;3290;47.716;9.070;2023-07-02T12:03:41;15.23;;;9.70;;
6513;SDS011;3290;47.716;9.070;2023-07-02T12:06:07;15.10;;;8.53;;
6513;SDS011;3290;47.716;9.070;2023-07-02T12:08:32;19.70;;;9.83;;
6513;SDS011;3290;47.716;9.070;2023-07-02T12:10:57;14.70;;;8.87;;
6513;SDS011;3290;47.716;9.070;2023-07-02T12:13:23;14.90;;;10.40;;
6513;SDS011;3290;47.716;9.070;2023-07-02T12:15:48;18.30;;;9.80;;
6513;SDS011;3290;47.716;9.070;2023-07-02T12:18:16;12.90;;;7.60;;
6513;SDS011;3290;47.716;9.070;2023-07-02T12:20:41;16.17;;;6.47;;
6513;SDS011;3290;47.716;9.070;2023-07-02T12:23:07;10.43;;;7.40;;
6513;SDS011;3290;47.716;9.070;2023-07-02T12:25:32;18.13;;;8.27;;
6513;SDS011;3290;47.716;9.070;2023-07-02T12:27:58;12.13;;;7.17;;
6513;SDS011;3290;47.716;9.070;2023-07-02T12:30:23;14.83;;;8.50;;
6513;SDS011;3290;47.716;9.070;2023-07-02T12:32:48;13.90;;;8.13;;
6513;SDS011;3290;47.716;9.070;2023-07-02T12:35:14;17.30;;;8.47;;
6513;SDS011;3290;47.716;9.070;2023-07-02T12:37:45;17.10;;;8.37;;
6513;SDS011;3290;47.716;9.070;2023-07-02T12:40:12;15.17;;;9.10;;
6513;SDS011;3290;47.716;9.070;2023-07-02T12:42:40;17.10;;;8.80;;
6513;SDS011;3290;47.716;9.070;2023-07-02T12:45:07;15.93;;;9.33;;
6513;SDS011;3290;47.716;9.070;2023-07-02T12:47:33;12.73;;;7.70;;
6513;SDS011;3290;47.716;9.070;2023-07-02T12:49:59;17.07;;;8.80;;
6513;SDS011;3290;47.716;9.070;2023-07-02T12:52:24;15.87;;;8.47;;
6513;SDS011;3290;47.716;9.070;2023-07-02T12:54:50;17.03;;;9.90;;
6513;SDS011;3290;47.716;9.070;2023-07-02T12:57:15;14.30;;;9.07;;
6513;SDS011;3290;47.716;9.070;2023-07-02T12:59:42;13.50;;;9.47;;
6513;SDS011;3290;47.716;9.070;2023-07-02T13:02:07;18.03;;;9.37;;
6513;SDS011;3290;47.716;9.070;2023-07-02T13:04:34;16.30;;;7.83;;
6513;SDS011;3290;47.716;9.070;2023-07-02T13:06:59;12.70;;;7.20;;
6513;SDS011;3290;47.716;9.070;2023-07-02T13:09:25;10.40;;;6.97;;
6513;SDS011;3290;47.716;9.070;2023-07-02T13:11:50;10.20;;;6.00;;
6513;SDS011;3290;47.716;9.070;2023-07-02T13:14:16;13.57;;;7.13;;
6513;SDS011;3290;47.716;9.070;2023-07-02T13:16:42;14.00;;;7.70;;
6513;SDS011;3290;47.716;9.070;2023-07-02T13:19:07;13.87;;;8.33;;
6513;SDS011;3290;47.716;9.070;2023-07-02T13:21:32;10.93;;;7.43;;
6513;SDS011;3290;47.716;9.070;2023-07-02T13:23:58;12.10;;;7.67;;
6513;SDS011;3290;47.716;9.070;2023-07-02T13:26:23;13.80;;;8.40;;
6513;SDS011;3290;47.716;9.070;2023-07-02T13:28:49;13.60;;;7.17;;
6513;SDS011;3290;47.716;9.070;2023-07-02T13:31:14;11.97;;;7.50;;
6513;SDS011;3290;47.716;9.070;2023-07-02T13:33:40;12.37;;;8.03;;
6513;SDS011;3290;47.716;9.070;2023-07-02T13:36:06;12.27;;;8.07;;
6513;SDS011;3290;47.716;9.070;2023-07-02T13:38:31;10.07;;;7.10;;
6513;SDS011;3290;47.716;9.070;2023-07-02T13:40:57;12.50;;;7.67;;
6513;SDS011;3290;47.716;9.070;2023-07-02T13:43:23;13.10;;;7.57;;
6513;SDS011;3290;47.716;9.070;2023-07-02T13:45:48;10.00;;;7.10;;
6513;SDS011;3290;47.716;9.070;2023-07-02T13:48:14;12.47;;;7.90;;
6513;SDS011;3290;47.716;9.070;2023-07-02T13:50:39;12.07;;;7.33;;
6513;SDS011;3290;47.716;9.070;2023-07-02T13:53:04;10.83;;;7.03;;
6513;SDS011;3290;47.716;9.070;2023-07-02T13:55:30;10.70;;;6.27;;
6513;SDS011;3290;47.716;9.070;2023-07-02T13:57:55;14.23;;;7.40;;
6513;SDS011;3290;47.716;9.070;2023-07-02T14:00:25;9.13;;;6.43;;
6513;SDS011;3290;47.716;9.070;2023-07-02T14:02:51;10.83;;;6.23;;
6513;SDS011;3290;47.716;9.070;2023-07-02T14:05:16;11.87;;;6.20;;
6513;SDS011;3290;47.716;9.070;2023-07-02T14:07:41;11.60;;;5.47;;
6513;SDS011;3290;47.716;9.070;2023-07-02T14:10:07;8.87;;;5.53;;
6513;SDS011;3290;47.716;9.070;2023-07-02T14:12:33;8.83;;;5.60;;
6513;SDS011;3290;47.716;9.070;2023-07-02T14:14:59;9.60;;;6.17;;
6513;SDS011;3290;47.716;9.070;2023-07-02T14:17:24;9.00;;;5.67;;
6513;SDS011;3290;47.716;9.070;2023-07-02T14:19:49;10.60;;;6.00;;
6513;SDS011;3290;47.716;9.070;2023-07-02T14:22:15;9.63;;;6.13;;
6513;SDS011;3290;47.716;9.070;2023-07-02T14:24:40;9.30;;;6.90;;
6513;SDS011;3290;47.716;9.070;2023-07-02T14:27:05;10.50;;;6.23;;
6513;SDS011;3290;47.716;9.070;2023-07-02T14:29:31;9.80;;;6.30;;
6513;SDS011;3290;47.716;9.070;2023-07-02T14:31:57;8.70;;;5.30;;
6513;SDS011;3290;47.716;9.070;2023-07-02T14:34:22;8.77;;;5.70;;
6513;SDS011;3290;47.716;9.070;2023-07-02T14:36:48;12.37;;;5.00;;
6513;SDS011;3290;47.716;9.070;2023-07-02T14:39:13;10.50;;;5.73;;
6513;SDS011;3290;47.716;9.070;2023-07-02T14:41:39;7.73;;;4.93;;
6513;SDS011;3290;47.716;9.070;2023-07-02T14:44:04;8.30;;;5.23;;
6513;SDS011;3290;47.716;9.070;2023-07-02T14:46:30;9.37;;;6.40;;
6513;SDS011;3290;47.716;9.070;2023-07-02T14:48:59;11.20;;;6.60;;
6513;SDS011;3290;47.716;9.070;2023-07-02T14:51:24;7.63;;;5.60;;
6513;SDS011;3290;47.716;9.070;2023-07-02T14:53:50;8.70;;;5.50;;
6513;SDS011;3290;47.716;9.070;2023-07-02T14:56:16;10.93;;;5.60;;
6513;SDS011;3290;47.716;9.070;2023-07-02T14:58:41;9.83;;;5.87;;
6513;SDS011;3290;47.716;9.070;2023-07-02T15:01:07;10.17;;;6.33;;
6513;SDS011;3290;47.716;9.070;2023-07-02T15:03:32;8.80;;;5.77;;
6513;SDS011;3290;47.716;9.070;2023-07-02T15:06:17;6.60;;;4.73;;